Time;durP1;ratioP1;P1;durP2;ratioP2;P2;SDS_P1;SDS_P2;PMS_P1;PMS_P2;Temp;Humidity;BMP_temperature;BMP_pressure;BME280_temperature;BME280_humidity;BME280_pressure;Samples;Min_cycle;Max_cycle;Signal;HPM_P1;HPM_P2
2022/01/22 00:01:45;;;;;;;2.27;1.77;;;3.60;99.90;;;;;;5013148;28;20221;-71
2022/01/22 00:04:11;;;;;;;2.13;2.03;;;3.60;99.90;;;;;;5013384;28;20171;-71
2022/01/22 00:06:36;;;;;;;3.30;2.30;;;3.60;99.90;;;;;;5011653;28;20467;-72
2022/01/22 00:09:03;;;;;;;2.10;1.93;;;3.70;99.90;;;;;;5011831;28;20611;-72
2022/01/22 00:11:34;;;;;;;2.17;1.97;;;3.70;99.90;;;;;;5012956;28;20227;-71
2022/01/22 00:16:44;;;;;;;1.77;1.50;;;3.80;99.90;;;;;;5013140;28;21019;-71
2022/01/22 00:19:10;;;;;;;2.60;2.20;;;3.70;99.90;;;;;;5012893;28;20450;-71
2022/01/22 00:21:36;;;;;;;2.40;1.90;;;3.80;99.90;;;;;;5012992;28;20219;-70
2022/01/22 00:24:03;;;;;;;1.63;1.40;;;3.80;99.90;;;;;;5012665;28;20230;-71
2022/01/22 00:26:28;;;;;;;2.07;1.73;;;3.80;99.90;;;;;;5012463;28;20466;-71
2022/01/22 00:28:54;;;;;;;2.87;1.80;;;3.80;99.90;;;;;;5012619;28;20793;-72
2022/01/22 00:31:19;;;;;;;2.27;2.07;;;3.80;99.90;;;;;;5012597;28;20183;-71
2022/01/22 00:33:45;;;;;;;1.23;1.13;;;3.90;99.90;;;;;;5012619;28;20160;-70
2022/01/22 00:36:10;;;;;;;2.83;2.53;;;3.80;99.90;;;;;;5012121;28;20184;-71
2022/01/22 00:38:36;;;;;;;4.20;2.47;;;3.80;99.90;;;;;;5012593;28;20172;-71
2022/01/22 00:41:01;;;;;;;3.13;2.03;;;3.80;99.90;;;;;;5012458;28;20176;-70
2022/01/22 00:43:27;;;;;;;2.17;1.97;;;3.90;99.90;;;;;;5012344;28;20164;-70
2022/01/22 00:45:52;;;;;;;2.33;2.13;;;3.90;99.90;;;;;;5010967;28;20565;-70
2022/01/22 00:48:17;;;;;;;3.07;2.23;;;3.90;99.90;;;;;;5012424;28;20279;-72
2022/01/22 00:50:44;;;;;;;3.47;2.47;;;3.80;99.90;;;;;;5012420;28;20171;-71
2022/01/22 00:53:10;;;;;;;5.37;2.13;;;3.90;99.90;;;;;;5012226;28;20251;-71
2022/01/22 00:55:35;;;;;;;3.33;2.47;;;3.90;99.90;;;;;;5012043;28;20518;-72
2022/01/22 00:58:01;;;;;;;2.50;2.30;;;3.90;99.90;;;;;;5012274;28;20541;-71
2022/01/22 01:00:26;;;;;;;3.70;2.70;;;3.90;99.90;;;;;;5015414;28;20178;-71
2022/01/22 01:02:52;;;;;;;3.60;3.30;;;3.90;99.90;;;;;;5012371;28;20737;-71
2022/01/22 01:05:17;;;;;;;2.67;2.43;;;3.90;99.90;;;;;;5011964;28;20174;-72
2022/01/22 01:07:44;;;;;;;3.40;2.07;;;3.90;99.90;;;;;;5012143;28;20200;-71
2022/01/22 01:10:13;;;;;;;4.70;2.73;;;3.90;99.90;;;;;;5011986;28;20171;-71
2022/01/22 01:12:40;;;;;;;3.63;1.90;;;3.90;99.90;;;;;;5012132;28;20403;-71
2022/01/22 01:15:34;;;;;;;6.17;2.67;;;3.90;99.90;;;;;;4994458;28;20435;-71
2022/01/22 01:32:10;;;;;;;2.40;1.63;;;3.90;99.90;;;;;;5012155;28;20411;-71
2022/01/22 01:34:32;;;;;;;2.60;1.63;;;3.90;99.90;;;;;;5012140;28;20405;-72
2022/01/22 01:36:57;;;;;;;2.40;1.73;;;3.90;99.90;;;;;;5012000;28;20797;-71
2022/01/22 01:39:28;;;;;;;3.27;2.27;;;3.90;99.90;;;;;;5012119;28;20180;-71
2022/01/22 01:44:20;;;;;;;2.93;1.73;;;4.00;99.90;;;;;;5011808;28;20498;-71
2022/01/22 01:46:52;;;;;;;2.20;1.97;;;4.00;99.90;;;;;;5011691;28;20196;-72
2022/01/22 01:49:18;;;;;;;3.83;2.60;;;4.00;99.90;;;;;;5014995;28;20508;-71
2022/01/22 01:51:46;;;;;;;2.60;2.23;;;3.90;99.90;;;;;;5015604;28;20415;-72
2022/01/22 01:59:24;;;;;;;2.40;2.00;;;4.00;99.90;;;;;;5015658;28;20410;-72
2022/01/22 02:01:51;;;;;;;2.67;2.30;;;3.90;99.90;;;;;;5015684;28;20399;-72
2022/01/22 02:04:17;;;;;;;2.80;2.10;;;4.00;99.90;;;;;;5014208;28;20234;-73
2022/01/22 02:06:42;;;;;;;3.47;1.90;;;4.00;99.90;;;;;;5015223;28;20931;-71
2022/01/22 02:09:10;;;;;;;2.33;2.13;;;3.90;99.90;;;;;;5015293;28;20175;-72
2022/01/22 02:11:36;;;;;;;2.13;1.90;;;3.90;99.90;;;;;;5015511;28;20251;-71
2022/01/22 02:23:29;;;;;;;4.63;2.87;;;3.90;99.90;;;;;;5015196;28;20844;-72
2022/01/22 02:25:04;;;;;;;2.63;1.93;;;3.80;99.90;;;;;;5034577;28;20412;-72
2022/01/22 02:27:31;;;;;;;4.73;1.97;;;3.80;99.90;;;;;;5059371;23;20967;-69
2022/01/22 02:29:56;;;;;;;2.97;2.67;;;3.90;99.90;;;;;;5034443;28;20402;-69
2022/01/22 02:32:49;;;;;;;3.73;2.40;;;3.80;99.90;;;;;;5034398;28;20956;-69
2022/01/22 02:35:21;;;;;;;2.77;1.53;;;3.90;99.90;;;;;;5034032;28;20258;-70
2022/01/22 02:37:54;;;;;;;5.30;2.90;;;3.80;99.90;;;;;;5034228;28;20418;-70
2022/01/22 02:40:25;;;;;;;2.80;2.53;;;3.90;99.90;;;;;;5034464;28;20390;-69
2022/01/22 02:42:51;;;;;;;5.87;3.30;;;3.90;99.90;;;;;;5034428;28;20399;-70
2022/01/22 02:45:20;;;;;;;2.83;2.37;;;3.90;99.90;;;;;;5033908;28;21030;-69
2022/01/22 02:47:46;;;;;;;3.10;2.47;;;3.90;99.90;;;;;;5034074;28;20207;-70
2022/01/22 02:50:15;;;;;;;4.57;2.63;;;3.90;99.90;;;;;;5033972;28;21117;-69
2022/01/22 02:52:41;;;;;;;3.40;2.00;;;3.80;99.90;;;;;;5033922;28;20160;-69
2022/01/22 02:55:08;;;;;;;2.80;2.60;;;3.80;99.90;;;;;;5033820;28;20497;-70
2022/01/22 02:57:35;;;;;;;2.40;2.10;;;3.80;99.90;;;;;;5034065;28;20222;-70
2022/01/22 03:00:14;;;;;;;2.17;1.97;;;3.80;99.90;;;;;;5033640;28;20792;-68
2022/01/22 03:02:39;;;;;;;1.63;1.20;;;3.80;99.90;;;;;;5033672;28;20441;-70
2022/01/22 03:05:07;;;;;;;2.90;1.20;;;3.80;99.90;;;;;;5033460;28;20434;-70
2022/01/22 03:07:32;;;;;;;2.20;1.80;;;3.80;99.90;;;;;;5033717;28;20896;-69
2022/01/22 03:10:02;;;;;;;1.93;1.70;;;3.80;99.90;;;;;;5033846;28;20486;-69
2022/01/22 03:15:29;;;;;;;4.10;2.33;;;3.80;99.90;;;;;;5033442;28;20395;-70
2022/01/22 03:27:20;;;;;;;2.40;2.13;;;3.70;99.90;;;;;;5033647;28;20441;-69
2022/01/22 03:28:18;;;;;;;2.40;1.53;;;3.70;99.90;;;;;;5033212;28;20896;-69
2022/01/22 03:30:44;;;;;;;1.33;1.13;;;3.70;99.90;;;;;;5033335;28;20781;-69
2022/01/22 03:33:09;;;;;;;1.20;1.10;;;3.70;99.90;;;;;;5033141;28;20407;-69
2022/01/22 03:35:36;;;;;;;2.23;1.73;;;3.60;99.90;;;;;;5032989;28;20187;-69
2022/01/22 03:38:04;;;;;;;1.80;1.30;;;3.60;99.90;;;;;;5033009;28;20566;-70
2022/01/22 03:40:30;;;;;;;1.60;1.27;;;3.50;99.90;;;;;;5032921;28;20407;-69
2022/01/22 03:42:55;;;;;;;2.70;1.70;;;3.40;99.90;;;;;;5033121;28;20409;-69
2022/01/22 03:45:23;;;;;;;1.60;1.27;;;3.30;99.90;;;;;;5032943;28;20174;-69
2022/01/22 03:47:49;;;;;;;3.67;1.87;;;3.30;99.90;;;;;;5032610;28;20203;-69
2022/01/22 03:50:18;;;;;;;2.73;2.10;;;3.20;99.90;;;;;;5033009;28;20432;-69
2022/01/22 03:52:43;;;;;;;1.93;1.83;;;3.20;99.90;;;;;;5032919;28;20454;-69
2022/01/22 03:55:16;;;;;;;1.87;1.77;;;3.10;99.90;;;;;;5032777;28;20444;-68
2022/01/22 03:57:42;;;;;;;1.00;0.90;;;3.10;99.90;;;;;;5032857;28;20350;-69
2022/01/22 04:00:08;;;;;;;1.87;1.47;;;3.00;99.90;;;;;;5032949;28;20437;-69
2022/01/22 04:05:09;;;;;;;1.40;1.20;;;3.00;99.90;;;;;;5031698;28;20413;-68
2022/01/22 04:10:21;;;;;;;3.13;1.60;;;2.90;99.90;;;;;;5032070;28;20178;-68
2022/01/22 04:12:53;;;;;;;2.67;1.53;;;2.80;99.90;;;;;;5032561;28;20829;-69
2022/01/22 04:15:24;;;;;;;1.57;1.47;;;2.90;99.90;;;;;;5032507;28;20402;-70
2022/01/22 04:26:11;;;;;;;0.93;0.93;;;2.70;99.90;;;;;;5032377;28;20393;-69
2022/01/22 04:28:37;;;;;;;1.50;1.40;;;2.70;99.90;;;;;;5042720;28;20421;-68
2022/01/22 04:31:02;;;;;;;4.83;1.93;;;2.70;99.90;;;;;;5052121;28;20773;-68
2022/01/22 04:33:28;;;;;;;0.80;0.80;;;2.70;99.90;;;;;;5051816;28;20170;-69
2022/01/22 04:35:53;;;;;;;1.60;1.30;;;2.70;99.90;;;;;;5051879;28;20179;-69
2022/01/22 04:38:19;;;;;;;1.53;1.43;;;2.80;99.90;;;;;;5051805;28;20704;-69
2022/01/22 04:40:44;;;;;;;1.30;1.20;;;2.80;99.90;;;;;;5051858;28;20174;-69
2022/01/22 04:43:10;;;;;;;6.63;1.33;;;2.80;99.90;;;;;;5051678;28;20167;-68
2022/01/22 04:48:24;;;;;;;1.53;1.20;;;2.80;99.90;;;;;;5052018;28;21022;-69
2022/01/22 04:56:17;;;;;;;1.00;1.00;;;2.90;99.90;;;;;;5051567;28;20462;-69
2022/01/22 04:58:43;;;;;;;3.33;1.80;;;2.90;99.90;;;;;;5043225;28;20820;-68
2022/01/22 05:01:08;;;;;;;1.20;1.10;;;2.90;99.90;;;;;;5031454;28;20198;-68
2022/01/22 05:03:34;;;;;;;5.30;1.53;;;2.90;99.90;;;;;;5031399;28;20210;-68
2022/01/22 05:06:00;;;;;;;1.53;1.30;;;2.80;99.90;;;;;;5031406;28;20171;-68
2022/01/22 05:08:26;;;;;;;1.33;1.23;;;2.80;99.90;;;;;;5031077;28;20199;-67
2022/01/22 05:10:51;;;;;;;2.03;1.40;;;2.80;99.90;;;;;;5031531;28;20417;-68
2022/01/22 05:13:17;;;;;;;1.67;1.57;;;2.80;99.90;;;;;;5031487;28;20234;-69
2022/01/22 05:15:42;;;;;;;1.63;1.40;;;2.80;99.90;;;;;;5031275;28;20174;-69
2022/01/22 05:18:08;;;;;;;1.37;1.27;;;2.80;99.90;;;;;;5030964;28;20199;-69
2022/01/22 05:20:43;;;;;;;1.80;1.70;;;2.80;99.90;;;;;;5012349;28;20183;-68
2022/01/22 05:23:14;;;;;;;1.00;0.87;;;2.80;99.90;;;;;;5014665;28;20637;-68
2022/01/22 05:25:45;;;;;;;1.77;1.67;;;2.80;99.90;;;;;;5015853;28;20469;-69
2022/01/22 05:28:48;;;;;;;2.50;2.40;;;2.80;99.90;;;;;;5015472;28;20458;-68
2022/01/22 05:31:24;;;;;;;1.33;1.23;;;2.70;99.90;;;;;;5015570;28;20419;-68
2022/01/22 05:39:04;;;;;;;2.40;1.87;;;2.60;99.90;;;;;;5035947;28;20490;-68
2022/01/22 05:41:31;;;;;;;1.03;1.03;;;2.60;99.90;;;;;;5023708;28;20417;-69
2022/01/22 05:43:56;;;;;;;0.77;0.77;;;2.60;99.90;;;;;;5015564;28;20400;-69
2022/01/22 05:46:22;;;;;;;1.20;1.20;;;2.60;99.90;;;;;;5015831;28;20430;-68
2022/01/22 05:48:47;;;;;;;1.30;1.20;;;2.50;99.90;;;;;;5017670;28;20164;-69
2022/01/22 05:51:14;;;;;;;1.93;1.73;;;2.50;99.90;;;;;;5034449;28;20258;-69
2022/01/22 05:54:12;;;;;;;1.63;1.47;;;2.40;99.90;;;;;;5035976;28;20182;-69
2022/01/22 06:01:59;;;;;;;0.80;0.80;;;2.30;99.90;;;;;;5015692;28;20461;-67
2022/01/22 06:04:25;;;;;;;2.60;1.10;;;2.30;99.90;;;;;;5015209;28;20498;-67
2022/01/22 06:06:50;;;;;;;5.53;1.37;;;2.30;99.90;;;;;;5019990;28;20199;-67
2022/01/22 06:09:16;;;;;;;1.30;1.20;;;2.30;99.90;;;;;;5034826;28;20206;-69
2022/01/22 06:11:54;;;;;;;3.67;1.13;;;2.20;99.90;;;;;;5020365;28;20222;-69
2022/01/22 06:14:20;;;;;;;2.27;1.30;;;2.20;99.90;;;;;;5014979;28;20205;-67
2022/01/22 06:16:46;;;;;;;3.33;1.50;;;2.20;99.90;;;;;;5014758;28;20546;-68
2022/01/22 06:19:11;;;;;;;2.30;2.10;;;2.10;99.90;;;;;;4997017;28;20195;-69
2022/01/22 06:21:37;;;;;;;1.80;1.70;;;2.10;99.90;;;;;;5014699;28;20229;-68
2022/01/22 06:24:02;;;;;;;1.80;1.60;;;2.10;99.90;;;;;;5024236;28;20175;-68
2022/01/22 06:26:28;;;;;;;1.33;1.10;;;2.10;99.90;;;;;;5016265;28;20615;-69
2022/01/22 06:28:53;;;;;;;2.13;1.70;;;2.10;99.90;;;;;;5036511;28;20175;-68
2022/01/22 06:31:19;;;;;;;1.97;1.77;;;2.00;99.90;;;;;;5034282;28;20168;-68
2022/01/22 06:33:44;;;;;;;4.17;1.53;;;2.00;99.90;;;;;;5033811;28;20168;-68
2022/01/22 06:36:10;;;;;;;2.47;1.90;;;1.90;99.90;;;;;;5019188;28;20196;-68
2022/01/22 06:38:35;;;;;;;2.73;1.77;;;1.90;99.90;;;;;;5014398;28;20172;-68
2022/01/22 06:43:45;;;;;;;2.90;2.40;;;1.90;99.90;;;;;;5034094;28;20173;-68
2022/01/22 06:46:10;;;;;;;1.67;1.57;;;1.90;99.90;;;;;;5033723;28;20509;-68
2022/01/22 06:48:36;;;;;;;2.00;1.80;;;1.90;99.90;;;;;;5033706;28;20196;-67
2022/01/22 06:51:02;;;;;;;2.47;1.43;;;1.90;99.90;;;;;;5033977;28;20713;-68
2022/01/22 06:53:28;;;;;;;4.60;1.63;;;1.80;99.90;;;;;;5033954;28;20167;-67
2022/01/22 06:56:00;;;;;;;2.33;1.50;;;1.80;99.90;;;;;;5033359;28;20255;-67
2022/01/22 06:58:26;;;;;;;2.10;1.67;;;1.80;99.90;;;;;;5033921;28;20509;-68
2022/01/22 07:00:51;;;;;;;1.43;1.33;;;1.80;99.90;;;;;;5033838;28;20864;-68
2022/01/22 07:03:17;;;;;;;2.37;1.93;;;1.80;99.90;;;;;;5014606;28;20180;-67
2022/01/22 07:05:42;;;;;;;3.43;1.40;;;1.80;99.90;;;;;;5013718;28;20608;-68
2022/01/22 07:08:08;;;;;;;1.50;1.27;;;1.90;99.90;;;;;;5029451;28;20235;-68
2022/01/22 07:10:33;;;;;;;2.93;2.40;;;2.00;99.90;;;;;;5033543;28;20627;-68
2022/01/22 07:12:59;;;;;;;2.60;2.40;;;2.00;99.90;;;;;;5016990;28;20215;-68
2022/01/22 07:15:25;;;;;;;1.30;1.20;;;2.00;99.90;;;;;;5013809;28;20180;-67
2022/01/22 07:17:50;;;;;;;1.97;1.87;;;2.30;99.90;;;;;;5013656;28;20449;-68
2022/01/22 07:20:24;;;;;;;1.10;1.00;;;2.20;99.90;;;;;;5013687;28;20172;-68
2022/01/22 07:22:53;;;;;;;1.53;1.43;;;2.40;99.90;;;;;;5013661;28;20223;-68
2022/01/22 07:25:19;;;;;;;1.40;1.30;;;2.50;99.90;;;;;;5013599;28;21051;-69
2022/01/22 07:27:45;;;;;;;2.97;2.03;;;2.40;99.90;;;;;;5013402;28;20467;-67
2022/01/22 07:30:12;;;;;;;1.33;1.13;;;2.40;99.90;;;;;;5033509;28;20452;-68
2022/01/22 07:32:41;;;;;;;3.93;1.90;;;2.50;99.90;;;;;;5033181;28;20410;-68
2022/01/22 07:35:08;;;;;;;2.37;2.17;;;2.80;99.90;;;;;;5033430;28;20409;-67
2022/01/22 07:37:35;;;;;;;2.07;1.83;;;2.70;99.90;;;;;;5033168;28;20966;-69
2022/01/22 07:40:01;;;;;;;1.70;1.60;;;2.80;99.90;;;;;;5033168;28;20871;-68
2022/01/22 07:42:26;;;;;;;3.80;2.10;;;2.90;99.90;;;;;;5015278;28;20422;-69
2022/01/22 07:44:52;;;;;;;1.97;1.60;;;3.10;99.90;;;;;;5032437;28;20245;-68
2022/01/22 07:47:17;;;;;;;3.70;2.47;;;3.30;99.90;;;;;;5032123;28;20302;-68
2022/01/22 07:49:43;;;;;;;2.07;1.53;;;3.00;99.90;;;;;;5032963;28;20513;-68
2022/01/22 07:52:08;;;;;;;1.10;1.10;;;3.10;99.90;;;;;;5032859;28;20197;-69
2022/01/22 07:54:35;;;;;;;4.10;2.03;;;3.00;99.90;;;;;;5032746;28;20196;-68
2022/01/22 07:57:02;;;;;;;1.57;1.40;;;2.80;99.90;;;;;;5032760;28;20203;-69
2022/01/22 07:59:29;;;;;;;1.30;1.20;;;3.00;99.90;;;;;;5033097;28;20423;-69
2022/01/22 08:01:54;;;;;;;1.53;1.37;;;2.70;99.90;;;;;;5032378;28;20831;-68
2022/01/22 08:04:24;;;;;;;2.60;1.67;;;2.60;99.90;;;;;;5032558;28;20445;-71
2022/01/22 08:06:50;;;;;;;1.83;1.70;;;2.50;99.90;;;;;;5032194;28;20258;-72
2022/01/22 08:09:16;;;;;;;4.73;2.60;;;2.60;99.90;;;;;;5032497;28;20406;-71
2022/01/22 08:11:41;;;;;;;1.97;1.60;;;2.60;99.90;;;;;;5035902;28;20434;-69
2022/01/22 08:14:09;;;;;;;2.77;2.00;;;2.50;99.90;;;;;;5032702;28;20172;-71
2022/01/22 08:16:35;;;;;;;1.27;1.20;;;2.50;99.90;;;;;;5012872;28;20681;-68
2022/01/22 08:19:01;;;;;;;3.13;1.83;;;2.50;99.90;;;;;;5012668;28;20549;-69
2022/01/22 08:21:27;;;;;;;1.43;1.30;;;2.50;99.90;;;;;;5012632;28;20934;-69
2022/01/22 08:23:52;;;;;;;2.00;1.47;;;2.50;99.90;;;;;;5012397;28;20168;-69
2022/01/22 08:26:22;;;;;;;1.03;0.93;;;2.50;99.90;;;;;;5012391;28;20454;-68
2022/01/22 08:28:53;;;;;;;2.40;2.17;;;2.50;99.90;;;;;;5013016;28;20176;-69
2022/01/22 08:36:39;;;;;;;1.37;1.27;;;2.60;99.90;;;;;;5028258;28;20529;-68
2022/01/22 08:39:05;;;;;;;1.60;1.50;;;2.70;99.90;;;;;;5043431;28;20422;-69
2022/01/22 08:41:31;;;;;;;3.30;2.23;;;2.80;99.90;;;;;;5051700;28;20883;-68
2022/01/22 08:43:58;;;;;;;1.60;1.50;;;2.90;99.90;;;;;;5041425;28;20422;-68
2022/01/22 08:46:24;;;;;;;1.43;1.33;;;3.00;99.90;;;;;;5031629;28;20426;-69
2022/01/22 08:48:49;;;;;;;1.77;1.67;;;3.30;99.90;;;;;;5035070;28;20968;-69
2022/01/22 08:51:15;;;;;;;3.83;2.10;;;3.70;99.90;;;;;;5031837;28;20168;-69
2022/01/22 08:53:41;;;;;;;2.70;2.50;;;3.80;99.90;;;;;;5031451;28;20542;-70
2022/01/22 08:56:08;;;;;;;3.40;2.43;;;4.10;99.90;;;;;;5027235;28;20670;-69
2022/01/22 08:58:34;;;;;;;1.47;1.37;;;4.20;99.90;;;;;;5031135;28;20196;-69
2022/01/22 09:00:59;;;;;;;3.00;1.47;;;4.30;99.90;;;;;;5038030;28;20476;-69
2022/01/22 09:03:25;;;;;;;1.77;1.67;;;4.10;99.90;;;;;;5033271;28;20637;-69
2022/01/22 09:05:52;;;;;;;2.27;2.07;;;4.20;99.90;;;;;;5049051;28;20421;-69
2022/01/22 09:08:18;;;;;;;2.43;1.43;;;4.20;99.90;;;;;;5037299;28;20214;-71
2022/01/22 09:10:44;;;;;;;1.57;1.47;;;4.20;99.90;;;;;;5031886;28;20402;-69
2022/01/22 09:13:10;;;;;;;2.30;1.47;;;4.10;99.90;;;;;;5031293;28;20167;-69
2022/01/22 09:15:36;;;;;;;2.20;1.37;;;4.10;99.90;;;;;;5013324;28;20481;-68
2022/01/22 09:18:02;;;;;;;1.67;1.57;;;4.20;99.90;;;;;;5030751;28;20492;-69
2022/01/22 09:23:03;;;;;;;9.43;2.63;;;3.90;99.90;;;;;;5031550;28;20406;-69
2022/01/22 09:25:28;;;;;;;2.87;1.40;;;3.90;99.90;;;;;;5016385;28;20460;-70
2022/01/22 09:27:54;;;;;;;1.57;1.47;;;3.90;99.90;;;;;;5032319;28;20545;-68
2022/01/22 09:30:19;;;;;;;4.10;1.10;;;4.00;99.90;;;;;;5031165;28;20696;-69
2022/01/22 09:32:45;;;;;;;1.10;1.10;;;3.90;99.90;;;;;;5031501;28;20627;-70
2022/01/22 09:35:10;;;;;;;2.47;2.10;;;4.00;99.90;;;;;;5031065;28;20211;-70
2022/01/22 09:37:36;;;;;;;1.60;1.50;;;4.20;99.90;;;;;;5031263;28;20196;-69
2022/01/22 09:40:02;;;;;;;1.83;1.73;;;4.30;99.90;;;;;;5030811;28;20203;-70
2022/01/22 09:42:27;;;;;;;1.73;1.63;;;4.10;99.90;;;;;;5031855;28;20180;-70
2022/01/22 09:44:53;;;;;;;4.00;1.50;;;4.20;99.90;;;;;;5031632;28;20451;-70
2022/01/22 09:47:20;;;;;;;2.00;1.90;;;4.40;99.90;;;;;;5043478;28;20268;-69
2022/01/22 09:49:46;;;;;;;0.83;0.83;;;4.40;99.90;;;;;;5031199;28;20172;-69
2022/01/22 09:52:13;;;;;;;1.53;1.10;;;4.40;99.90;;;;;;5030945;28;20421;-69
2022/01/22 09:54:38;;;;;;;1.43;1.03;;;4.30;99.90;;;;;;5030847;28;20422;-70
2022/01/22 09:57:05;;;;;;;2.67;1.93;;;4.20;99.90;;;;;;5029703;28;20856;-69
2022/01/22 09:59:31;;;;;;;2.20;1.20;;;4.20;99.90;;;;;;5031090;28;20215;-70
2022/01/22 10:02:09;;;;;;;2.30;1.30;;;4.20;99.90;;;;;;5031129;28;20415;-69
2022/01/22 10:04:36;;;;;;;2.20;1.23;;;4.20;99.90;;;;;;5026339;28;20424;-69
2022/01/22 10:07:01;;;;;;;2.17;1.37;;;4.10;99.90;;;;;;5031012;28;20458;-69
2022/01/22 10:09:33;;;;;;;1.80;1.47;;;4.20;99.90;;;;;;5032937;28;20476;-69
2022/01/22 10:12:10;;;;;;;5.57;1.57;;;4.30;99.90;;;;;;5035027;28;20206;-69
2022/01/22 10:15:14;;;;;;;1.63;1.53;;;4.30;99.90;;;;;;5034781;28;20398;-69
2022/01/22 10:17:51;;;;;;;4.10;2.40;;;4.30;99.90;;;;;;5034624;28;20484;-71
2022/01/22 10:20:29;;;;;;;1.37;1.27;;;4.40;99.90;;;;;;5034783;28;20432;-70
2022/01/22 10:23:01;;;;;;;2.10;1.53;;;4.10;99.90;;;;;;5034537;28;20408;-69
2022/01/22 10:25:35;;;;;;;1.30;1.20;;;4.30;99.90;;;;;;5034632;28;20418;-69
2022/01/22 10:28:12;;;;;;;1.70;1.60;;;4.40;99.90;;;;;;5034091;28;20470;-70
2022/01/22 10:30:42;;;;;;;2.77;1.83;;;4.50;99.90;;;;;;5034322;28;20416;-69
2022/01/22 10:33:30;;;;;;;0.60;0.60;;;4.60;99.90;;;;;;5034365;28;20453;-70
2022/01/22 10:36:18;;;;;;;3.13;1.10;;;4.60;99.90;;;;;;5034324;28;20411;-70
2022/01/22 10:38:50;;;;;;;1.27;1.17;;;4.60;99.90;;;;;;5034753;28;20485;-69
2022/01/22 10:41:18;;;;;;;0.83;0.83;;;4.40;99.90;;;;;;5033906;28;20476;-69
2022/01/22 10:43:55;;;;;;;1.93;1.20;;;4.30;99.90;;;;;;5034093;28;20561;-69
2022/01/22 10:46:42;;;;;;;2.73;1.77;;;4.10;99.90;;;;;;5034301;28;20802;-70
2022/01/22 10:49:21;;;;;;;6.63;1.30;;;4.00;99.90;;;;;;5034227;28;20489;-70
2022/01/22 10:52:02;;;;;;;1.60;1.27;;;3.80;99.90;;;;;;5033926;28;20544;-69
2022/01/22 10:54:34;;;;;;;0.93;0.93;;;4.10;99.90;;;;;;5034235;28;20959;-69
2022/01/22 10:57:17;;;;;;;1.67;1.57;;;4.00;99.90;;;;;;5033754;28;20438;-69
2022/01/22 10:59:55;;;;;;;2.23;1.27;;;4.00;99.90;;;;;;5034125;28;20913;-69
2022/01/22 11:02:38;;;;;;;4.10;0.93;;;4.10;99.90;;;;;;5033887;28;20406;-68
2022/01/22 11:05:05;;;;;;;1.10;0.90;;;4.40;99.90;;;;;;5034224;28;20399;-70
2022/01/22 11:07:30;;;;;;;0.90;0.90;;;4.50;99.90;;;;;;5033783;28;20816;-69
2022/01/22 11:09:55;;;;;;;2.17;1.50;;;4.40;99.90;;;;;;5034039;28;20407;-69
2022/01/22 11:12:21;;;;;;;1.20;1.10;;;4.60;99.90;;;;;;5033729;28;20175;-69
2022/01/22 11:14:46;;;;;;;2.70;0.90;;;4.40;99.90;;;;;;5033748;28;20176;-69
2022/01/22 11:17:13;;;;;;;0.80;0.80;;;4.60;99.90;;;;;;5033724;28;20555;-69
2022/01/22 11:19:40;;;;;;;1.67;1.57;;;4.60;99.90;;;;;;5033694;28;20241;-68
2022/01/22 11:22:10;;;;;;;1.67;1.10;;;4.60;99.90;;;;;;5033504;28;20406;-69
2022/01/22 11:24:41;;;;;;;2.83;1.43;;;4.50;99.90;;;;;;5033694;28;20414;-69
2022/01/22 11:27:08;;;;;;;2.17;1.47;;;4.40;99.90;;;;;;5032979;28;20565;-69
2022/01/22 11:29:47;;;;;;;1.20;1.10;;;4.40;99.90;;;;;;5033501;28;20413;-69
2022/01/22 11:32:14;;;;;;;1.10;1.00;;;4.40;99.90;;;;;;5033331;28;20497;-69
2022/01/22 11:34:42;;;;;;;1.17;1.07;;;4.30;99.90;;;;;;5033454;28;20486;-71
2022/01/22 11:37:29;;;;;;;2.40;1.10;;;4.30;99.90;;;;;;5033280;28;20804;-68
2022/01/22 11:40:13;;;;;;;1.87;1.07;;;4.30;99.90;;;;;;5033439;28;20504;-70
2022/01/22 11:43:07;;;;;;;1.63;1.20;;;4.40;99.90;;;;;;5033021;28;20411;-69
2022/01/22 11:45:40;;;;;;;2.03;1.47;;;4.60;99.90;;;;;;5033501;28;20474;-70
2022/01/22 11:48:26;;;;;;;2.53;2.20;;;4.70;99.90;;;;;;5034125;28;20458;-70
2022/01/22 11:51:12;;;;;;;0.70;0.70;;;4.70;99.90;;;;;;5035037;28;20421;-68
2022/01/22 11:53:38;;;;;;;1.60;1.50;;;4.70;99.90;;;;;;5033222;28;20794;-70
2022/01/22 11:56:10;;;;;;;1.50;1.10;;;4.70;99.90;;;;;;5032802;28;20893;-69
2022/01/22 11:59:14;;;;;;;1.37;1.27;;;4.50;99.90;;;;;;5032863;28;20505;-70
2022/01/22 12:01:50;;;;;;;3.93;1.03;;;4.60;99.90;;;;;;5032922;28;20414;-69
2022/01/22 12:04:27;;;;;;;1.60;1.20;;;4.70;99.90;;;;;;5032855;28;20878;-69
2022/01/22 12:07:01;;;;;;;1.40;1.30;;;4.90;99.90;;;;;;5032668;28;20512;-69
2022/01/22 12:09:31;;;;;;;1.23;0.97;;;4.80;99.90;;;;;;5032947;28;20762;-69
2022/01/22 12:14:48;;;;;;;1.27;1.00;;;4.80;99.90;;;;;;5032695;28;20409;-69
2022/01/22 12:17:23;;;;;;;1.17;1.07;;;5.00;99.90;;;;;;5030208;28;20461;-68
2022/01/22 12:20:16;;;;;;;1.63;1.07;;;4.70;99.90;;;;;;5032590;28;20406;-70
2022/01/22 12:22:38;;;;;;;1.30;1.20;;;4.90;99.90;;;;;;5012417;28;20946;-70
2022/01/22 12:25:09;;;;;;;1.83;1.50;;;4.50;99.90;;;;;;5020835;28;20430;-70
2022/01/22 12:27:45;;;;;;;2.37;2.17;;;4.20;99.90;;;;;;5031987;28;20238;-69
2022/01/22 12:30:11;;;;;;;1.63;1.53;;;4.50;99.90;;;;;;5031233;28;20422;-68
2022/01/22 12:32:51;;;;;;;1.20;1.10;;;4.60;99.90;;;;;;5024159;28;20422;-69
2022/01/22 12:35:31;;;;;;;1.10;0.90;;;4.60;99.90;;;;;;5027314;28;20422;-70
2022/01/22 12:38:18;;;;;;;2.23;1.10;;;4.40;99.90;;;;;;5031933;28;20448;-69
2022/01/22 12:40:44;;;;;;;0.90;0.83;;;4.40;99.90;;;;;;5032190;28;20410;-69
2022/01/22 12:43:14;;;;;;;1.20;1.10;;;4.40;99.90;;;;;;5019637;28;20427;-67
2022/01/22 12:45:42;;;;;;;3.70;1.50;;;4.20;99.90;;;;;;5016887;28;20430;-68
2022/01/22 12:48:12;;;;;;;1.23;0.90;;;4.20;99.90;;;;;;5031756;28;20476;-69
2022/01/22 12:50:38;;;;;;;2.10;1.23;;;4.40;99.90;;;;;;5014058;28;20413;-68
2022/01/22 12:53:09;;;;;;;1.27;1.17;;;4.50;99.90;;;;;;5031926;28;20414;-70
2022/01/22 12:58:39;;;;;;;1.10;0.80;;;4.50;99.90;;;;;;4977292;28;20414;-69
2022/01/22 13:01:16;;;;;;;2.53;1.30;;;4.50;99.90;;;;;;5031819;28;20406;-69
2022/01/22 13:03:47;;;;;;;0.80;0.80;;;4.30;99.90;;;;;;5021085;28;20557;-68
2022/01/22 13:06:13;;;;;;;6.83;1.50;;;4.20;99.90;;;;;;5011733;28;20415;-69
2022/01/22 13:08:40;;;;;;;2.23;1.83;;;4.40;99.90;;;;;;5012201;28;20550;-69
2022/01/22 13:11:10;;;;;;;1.30;1.20;;;4.60;99.90;;;;;;5014732;28;20422;-69
2022/01/22 13:13:38;;;;;;;0.97;0.97;;;4.70;99.90;;;;;;5030570;28;20926;-68
2022/01/22 13:16:13;;;;;;;1.30;1.20;;;4.70;99.90;;;;;;5031377;28;20417;-70
2022/01/22 13:18:58;;;;;;;1.00;0.90;;;4.70;99.90;;;;;;5031604;28;20406;-69
2022/01/22 13:21:28;;;;;;;4.47;1.70;;;4.50;99.90;;;;;;5031481;28;20401;-68
2022/01/22 13:24:09;;;;;;;3.10;1.23;;;4.50;99.90;;;;;;5031205;28;21010;-69
2022/01/22 13:26:42;;;;;;;1.80;1.13;;;4.70;99.90;;;;;;5031361;28;20812;-68
2022/01/22 13:29:19;;;;;;;1.40;1.10;;;4.70;99.90;;;;;;5031692;28;20425;-71
2022/01/22 13:32:23;;;;;;;2.10;1.30;;;4.30;99.90;;;;;;5031357;28;20410;-68
2022/01/22 13:38:23;;;;;;;1.60;1.40;;;4.50;99.90;;;;;;5031496;28;20433;-69
2022/01/22 13:49:03;;;;;;;3.10;1.70;;;4.50;99.90;;;;;;5035274;28;20460;-68
2022/01/22 13:51:29;;;;;;;1.13;1.03;;;4.50;99.90;;;;;;5034532;28;20418;-68
2022/01/22 13:53:57;;;;;;;1.27;1.17;;;4.60;99.90;;;;;;5017192;28;20456;-68
2022/01/22 13:56:48;;;;;;;1.40;1.30;;;4.30;99.90;;;;;;5035063;28;20522;-69
2022/01/22 13:59:15;;;;;;;1.53;0.87;;;4.00;99.90;;;;;;5034662;28;20514;-70
2022/01/22 14:01:52;;;;;;;2.40;1.43;;;4.00;99.90;;;;;;5035083;28;20863;-68
2022/01/22 14:04:19;;;;;;;2.40;1.27;;;4.10;99.90;;;;;;5035870;28;20410;-68
2022/01/22 14:06:46;;;;;;;1.90;1.60;;;4.30;99.90;;;;;;5034966;28;20488;-68
2022/01/22 14:09:19;;;;;;;1.60;1.30;;;4.20;99.90;;;;;;5034800;28;20966;-69
2022/01/22 14:12:10;;;;;;;3.50;1.73;;;4.30;99.90;;;;;;5034622;28;20406;-68
2022/01/22 14:14:56;;;;;;;1.40;1.30;;;4.20;99.90;;;;;;5035010;28;20398;-68
2022/01/22 14:17:24;;;;;;;1.57;1.30;;;4.10;99.90;;;;;;5034648;28;20797;-69
2022/01/22 14:20:11;;;;;;;2.73;2.53;;;4.20;99.90;;;;;;5035314;28;20417;-70
2022/01/22 14:22:56;;;;;;;1.57;1.47;;;4.10;99.90;;;;;;5034764;28;20410;-69
2022/01/22 14:25:22;;;;;;;1.93;1.23;;;4.20;99.90;;;;;;5034450;28;20410;-68
2022/01/22 14:28:06;;;;;;;1.20;1.10;;;4.20;99.90;;;;;;5034722;28;20569;-69
2022/01/22 14:30:41;;;;;;;1.33;1.23;;;4.30;99.90;;;;;;5016609;28;20418;-69
2022/01/22 14:33:08;;;;;;;1.93;1.10;;;4.10;99.90;;;;;;5034405;28;20409;-68
2022/01/22 14:35:35;;;;;;;3.80;1.03;;;4.10;99.90;;;;;;5034342;28;20557;-70
2022/01/22 14:38:32;;;;;;;1.13;1.07;;;4.20;99.90;;;;;;5034288;28;20437;-69
2022/01/22 14:46:41;;;;;;;2.73;1.10;;;3.90;99.90;;;;;;5014340;28;21031;-68
2022/01/22 14:49:06;;;;;;;2.17;1.50;;;3.90;99.90;;;;;;5014357;28;20407;-69
2022/01/22 14:51:31;;;;;;;1.97;1.77;;;3.80;99.90;;;;;;5014841;28;20612;-68
2022/01/22 14:53:57;;;;;;;0.80;0.80;;;3.90;99.90;;;;;;5028709;28;20182;-69
2022/01/22 14:56:23;;;;;;;2.00;1.57;;;3.80;99.90;;;;;;5033497;28;20561;-69
2022/01/22 14:58:48;;;;;;;2.20;1.50;;;3.90;99.90;;;;;;5027043;28;20183;-69
2022/01/22 15:01:14;;;;;;;0.90;0.90;;;3.90;99.90;;;;;;5033299;28;20182;-68